Time;durP1;ratioP1;P1;durP2;ratioP2;P2;SDS_P1;SDS_P2;PMS_P1;PMS_P2;Temp;Humidity;BMP_temperature;BMP_pressure;BME280_temperature;BME280_humidity;BME280_pressure;Samples;Min_cycle;Max_cycle;Signal;HPM_P1;HPM_P2
2023/05/14 00:02:13;;;;;;;13.17;12.17;;;14.40;99.90;;;;;;10445258;28;20225;-81
2023/05/14 00:07:15;;;;;;;13.53;12.53;;;14.30;99.90;;;;;;10460009;28;20612;-80
2023/05/14 00:12:19;;;;;;;13.60;12.60;;;14.30;99.90;;;;;;10462790;28;20198;-80
2023/05/14 00:17:21;;;;;;;13.90;12.70;;;14.30;99.90;;;;;;10463338;28;20210;-80
2023/05/14 00:22:23;;;;;;;13.27;12.07;;;14.40;99.90;;;;;;10465847;28;20238;-80
2023/05/14 00:27:26;;;;;;;14.80;13.70;;;14.40;99.90;;;;;;10465418;28;20221;-81
2023/05/14 00:32:28;;;;;;;14.23;13.17;;;14.40;99.90;;;;;;10466719;28;20655;-80
2023/05/14 00:37:30;;;;;;;14.67;13.40;;;14.30;99.90;;;;;;10450278;28;20222;-80
2023/05/14 00:42:34;;;;;;;14.60;13.50;;;14.30;99.90;;;;;;10465687;28;20282;-80
2023/05/14 00:47:38;;;;;;;14.67;13.47;;;14.30;99.90;;;;;;10447772;28;20222;-80
2023/05/14 00:52:40;;;;;;;13.50;12.17;;;14.30;99.90;;;;;;10463142;28;20225;-80
2023/05/14 00:57:44;;;;;;;13.87;12.87;;;14.30;99.90;;;;;;10445997;28;20218;-80
2023/05/14 01:02:46;;;;;;;13.63;12.60;;;14.20;99.90;;;;;;10443560;28;20746;-80
2023/05/14 01:07:56;;;;;;;14.10;13.00;;;14.10;99.90;;;;;;10464022;28;20252;-80
2023/05/14 01:13:08;;;;;;;14.67;13.47;;;14.00;99.90;;;;;;10448949;28;20190;-80
2023/05/14 01:18:12;;;;;;;14.90;13.73;;;14.00;99.90;;;;;;10462292;28;20278;-80
2023/05/14 01:23:15;;;;;;;14.83;13.63;;;13.90;99.90;;;;;;10463741;28;20266;-80
2023/05/14 01:28:19;;;;;;;14.90;13.70;;;13.80;99.90;;;;;;10463789;28;20217;-80
2023/05/14 01:33:24;;;;;;;14.70;13.50;;;13.70;99.90;;;;;;10462464;28;20244;-80
2023/05/14 01:38:32;;;;;;;14.17;13.07;;;13.60;99.90;;;;;;10465698;28;20229;-80
2023/05/14 01:43:35;;;;;;;14.67;13.57;;;13.50;99.90;;;;;;10463938;28;20239;-80
2023/05/14 01:48:37;;;;;;;15.00;13.80;;;13.50;99.90;;;;;;10443029;28;20224;-80
2023/05/14 01:53:41;;;;;;;15.97;14.63;;;13.50;99.90;;;;;;10461136;28;20202;-80
2023/05/14 01:58:43;;;;;;;16.17;14.80;;;13.40;99.90;;;;;;10464228;28;20210;-80
2023/05/14 02:03:46;;;;;;;15.57;14.37;;;13.30;99.90;;;;;;10451881;28;20684;-80
2023/05/14 02:08:49;;;;;;;14.73;13.53;;;13.20;99.90;;;;;;10466153;28;20252;-80
2023/05/14 02:13:52;;;;;;;14.83;13.73;;;13.20;99.90;;;;;;10452857;28;20202;-80
2023/05/14 02:18:54;;;;;;;15.70;14.40;;;13.10;99.90;;;;;;10450336;28;20704;-80
2023/05/14 02:23:57;;;;;;;14.67;13.57;;;13.10;99.90;;;;;;10450416;28;20551;-80
2023/05/14 02:28:59;;;;;;;15.80;14.33;;;13.10;99.90;;;;;;10466642;28;20791;-80
2023/05/14 02:34:03;;;;;;;14.93;13.80;;;13.10;99.90;;;;;;10468827;28;20198;-80
2023/05/14 02:39:06;;;;;;;15.83;14.63;;;13.10;99.90;;;;;;10467353;28;20643;-80
2023/05/14 02:44:08;;;;;;;15.53;13.73;;;13.10;99.90;;;;;;10468262;28;20243;-80
2023/05/14 02:49:10;;;;;;;16.23;14.73;;;13.20;99.90;;;;;;10479084;28;20708;-80
2023/05/14 02:54:15;;;;;;;15.33;14.00;;;13.20;99.90;;;;;;10469048;28;20605;-80
2023/05/14 02:59:17;;;;;;;15.10;13.90;;;13.30;99.90;;;;;;10445197;28;20245;-80
2023/05/14 03:04:19;;;;;;;15.80;14.40;;;13.30;99.90;;;;;;10466329;28;20201;-80
2023/05/14 03:09:22;;;;;;;15.77;14.47;;;13.30;99.90;;;;;;10467060;28;20636;-80
2023/05/14 03:14:24;;;;;;;14.33;13.23;;;13.40;99.90;;;;;;10449368;28;20198;-80
2023/05/14 03:19:27;;;;;;;13.87;12.87;;;13.40;99.90;;;;;;10466123;28;20225;-80
2023/05/14 03:24:30;;;;;;;14.47;13.27;;;13.50;99.90;;;;;;10468410;28;20225;-82
2023/05/14 03:29:32;;;;;;;15.50;14.30;;;13.60;99.90;;;;;;10448083;28;20693;-80
2023/05/14 03:34:34;;;;;;;15.03;14.00;;;13.60;99.90;;;;;;10464829;28;20190;-80
2023/05/14 03:39:38;;;;;;;15.43;14.23;;;13.60;99.90;;;;;;10462579;22;20261;-82
2023/05/14 03:44:40;;;;;;;14.77;13.67;;;13.70;99.90;;;;;;10418426;28;20194;-80
2023/05/14 03:49:43;;;;;;;14.00;12.80;;;13.70;99.90;;;;;;10395993;28;20221;-80
2023/05/14 03:54:48;;;;;;;15.20;13.97;;;13.70;99.90;;;;;;10407381;28;20205;-80
2023/05/14 03:59:50;;;;;;;15.47;14.37;;;13.70;99.90;;;;;;10409089;28;20222;-81
2023/05/14 04:04:54;;;;;;;14.27;13.10;;;13.80;99.90;;;;;;10384775;28;20654;-82
2023/05/14 04:09:58;;;;;;;13.70;12.60;;;13.80;99.90;;;;;;10418584;28;20222;-81
2023/05/14 04:15:03;;;;;;;13.23;12.33;;;13.80;99.90;;;;;;10385776;28;20207;-82
2023/05/14 04:20:07;;;;;;;14.03;12.90;;;13.90;99.90;;;;;;10405184;28;20223;-82
2023/05/14 04:25:10;;;;;;;14.10;12.87;;;13.90;99.90;;;;;;10385255;28;20245;-82
2023/05/14 04:30:13;;;;;;;13.50;12.50;;;13.90;99.90;;;;;;10421645;28;20224;-82
2023/05/14 04:35:15;;;;;;;12.60;11.63;;;13.90;99.90;;;;;;10405133;28;20195;-81
2023/05/14 04:40:18;;;;;;;13.87;12.57;;;13.90;99.90;;;;;;10423124;28;20245;-81
2023/05/14 04:45:21;;;;;;;13.57;12.47;;;14.00;99.90;;;;;;10418455;28;20214;-82
2023/05/14 04:50:23;;;;;;;13.13;12.03;;;14.00;99.90;;;;;;10392274;28;20218;-82
2023/05/14 04:55:26;;;;;;;11.90;10.90;;;14.00;99.90;;;;;;10408528;28;20199;-81
2023/05/14 05:00:28;;;;;;;12.90;11.90;;;14.00;99.90;;;;;;10417938;28;20218;-81
2023/05/14 05:05:30;;;;;;;13.60;12.60;;;14.00;99.90;;;;;;10418686;28;20245;-81
2023/05/14 05:10:34;;;;;;;12.73;11.50;;;14.10;99.90;;;;;;10405968;28;20217;-81
2023/05/14 05:15:36;;;;;;;12.30;11.00;;;14.10;99.90;;;;;;10419364;28;20234;-81
2023/05/14 05:20:38;;;;;;;12.50;11.40;;;14.10;99.90;;;;;;10424435;28;20241;-81
2023/05/14 05:25:42;;;;;;;12.40;11.40;;;14.10;99.90;;;;;;10401977;28;20210;-82
2023/05/14 05:30:44;;;;;;;13.00;11.97;;;14.10;99.90;;;;;;10400737;28;20252;-81
2023/05/14 05:35:47;;;;;;;12.97;11.70;;;14.10;99.90;;;;;;10407859;28;20364;-80
2023/05/14 05:40:50;;;;;;;12.87;11.80;;;14.10;99.90;;;;;;10425987;28;20728;-81
2023/05/14 05:45:52;;;;;;;11.63;10.73;;;14.10;99.90;;;;;;10411321;28;20244;-82
2023/05/14 05:50:54;;;;;;;15.47;10.87;;;14.10;99.90;;;;;;10429192;28;20282;-83
2023/05/14 05:55:58;;;;;;;11.70;10.77;;;14.10;99.90;;;;;;10392763;28;20244;-82
2023/05/14 06:01:00;;;;;;;12.07;11.10;;;14.20;99.90;;;;;;10392127;28;20226;-82
2023/05/14 06:06:02;;;;;;;11.77;10.80;;;14.20;99.90;;;;;;10423783;28;20313;-82
2023/05/14 06:11:05;;;;;;;11.37;10.50;;;14.30;99.90;;;;;;10407468;28;20241;-82
2023/05/14 06:16:07;;;;;;;12.17;11.23;;;14.40;99.90;;;;;;10405770;28;20202;-82
2023/05/14 06:21:09;;;;;;;12.27;10.97;;;14.40;99.90;;;;;;10421245;28;20222;-82
2023/05/14 06:26:13;;;;;;;13.03;11.80;;;14.50;99.90;;;;;;10425603;28;20210;-82
2023/05/14 06:31:15;;;;;;;12.40;11.47;;;14.60;99.90;;;;;;10408373;28;20218;-82
2023/05/14 06:36:17;;;;;;;30.10;13.33;;;14.70;99.90;;;;;;10426301;28;20657;-82
2023/05/14 06:41:21;;;;;;;11.23;10.33;;;14.90;99.90;;;;;;10422721;28;20253;-82
2023/05/14 06:46:23;;;;;;;20.33;11.90;;;15.00;99.90;;;;;;10401425;28;20221;-82
2023/05/14 06:51:25;;;;;;;11.57;10.57;;;15.10;99.90;;;;;;10403742;28;20305;-82
2023/05/14 06:56:29;;;;;;;11.50;10.60;;;15.10;99.90;;;;;;10408465;28;20199;-84
2023/05/14 07:01:31;;;;;;;11.33;10.47;;;15.10;99.90;;;;;;10402716;28;20257;-83
2023/05/14 07:06:33;;;;;;;12.10;10.70;;;15.20;99.90;;;;;;10401338;28;20257;-83
2023/05/14 07:11:36;;;;;;;11.27;10.20;;;15.30;99.90;;;;;;10420538;28;20242;-82
2023/05/14 07:16:41;;;;;;;10.97;10.00;;;15.40;99.90;;;;;;10404937;28;20194;-81
2023/05/14 07:21:43;;;;;;;12.70;11.70;;;15.40;99.90;;;;;;10403561;28;20245;-82
2023/05/14 07:26:47;;;;;;;12.50;11.30;;;15.50;99.90;;;;;;10403201;28;20207;-82
2023/05/14 07:31:51;;;;;;;11.50;10.57;;;15.70;99.90;;;;;;10403026;28;20682;-82
2023/05/14 07:36:54;;;;;;;10.10;9.30;;;15.80;99.90;;;;;;10420511;28;20203;-81
2023/05/14 07:41:57;;;;;;;11.33;10.43;;;16.00;99.90;;;;;;10421517;28;20195;-82
2023/05/14 07:46:59;;;;;;;10.60;9.70;;;16.20;99.90;;;;;;10404491;28;20206;-82
2023/05/14 07:52:01;;;;;;;10.77;9.87;;;16.40;99.90;;;;;;10421006;28;20252;-82
2023/05/14 07:57:05;;;;;;;12.80;11.80;;;16.70;99.90;;;;;;10402272;28;20199;-82
2023/05/14 08:02:08;;;;;;;10.70;9.90;;;17.10;99.90;;;;;;10372216;28;20652;-82
2023/05/14 08:07:11;;;;;;;11.80;10.83;;;17.40;99.90;;;;;;10417865;28;20280;-82
2023/05/14 08:12:14;;;;;;;10.63;9.73;;;17.50;99.90;;;;;;10358112;28;20248;-80
2023/05/14 08:17:16;;;;;;;9.83;9.03;;;17.50;99.90;;;;;;10413520;28;20210;-81
2023/05/14 08:22:19;;;;;;;11.57;10.57;;;17.70;99.90;;;;;;10415905;28;20190;-82
2023/05/14 08:27:22;;;;;;;10.17;9.37;;;18.20;99.90;;;;;;10398607;28;20238;-81
2023/05/14 08:32:24;;;;;;;10.00;9.10;;;18.60;99.90;;;;;;10396312;28;20677;-84
2023/05/14 08:37:26;;;;;;;9.37;8.57;;;18.80;99.90;;;;;;10399865;28;20714;-83
2023/05/14 08:42:30;;;;;;;9.00;8.20;;;18.90;99.90;;;;;;10398474;28;20186;-82
2023/05/14 08:47:33;;;;;;;10.97;9.80;;;19.20;99.90;;;;;;10380489;28;20237;-83
2023/05/14 08:52:35;;;;;;;8.70;7.90;;;19.60;99.90;;;;;;10397972;28;20206;-81
2023/05/14 08:57:39;;;;;;;10.13;9.07;;;19.90;99.90;;;;;;10417427;28;20538;-81
2023/05/14 09:02:44;;;;;;;10.70;9.70;;;20.10;99.90;;;;;;10417071;28;20309;-82
2023/05/14 09:07:46;;;;;;;10.90;10.00;;;20.30;99.90;;;;;;10414032;28;20728;-81
2023/05/14 09:12:53;;;;;;;11.80;10.70;;;20.60;99.90;;;;;;10414680;28;20260;-81
2023/05/14 09:17:56;;;;;;;10.10;9.30;;;20.50;99.90;;;;;;10416975;28;20206;-82
2023/05/14 09:22:59;;;;;;;10.07;9.20;;;20.20;99.90;;;;;;10419660;28;20941;-81
2023/05/14 09:28:06;;;;;;;11.50;10.33;;;20.00;99.90;;;;;;10397768;28;20224;-81
2023/05/14 09:33:09;;;;;;;11.00;10.10;;;20.10;99.90;;;;;;10417674;28;20229;-80
2023/05/14 09:38:11;;;;;;;11.50;10.60;;;20.50;99.90;;;;;;10418868;28;20289;-80
2023/05/14 09:43:14;;;;;;;11.50;10.50;;;21.00;99.90;;;;;;10421806;28;20205;-81
2023/05/14 09:48:17;;;;;;;9.67;8.87;;;21.20;99.70;;;;;;10403404;28;20278;-82
2023/05/14 09:53:21;;;;;;;11.70;9.17;;;21.10;99.90;;;;;;10384573;28;20241;-82
2023/05/14 09:58:25;;;;;;;8.87;8.17;;;20.90;98.20;;;;;;10434712;28;20241;-80
2023/05/14 10:03:30;;;;;;;10.03;9.17;;;20.50;99.90;;;;;;10406486;28;20281;-81
2023/05/14 10:08:35;;;;;;;11.87;10.83;;;20.10;99.70;;;;;;10421842;28;20727;-82
2023/05/14 10:13:41;;;;;;;10.30;9.40;;;19.70;99.90;;;;;;10419776;28;20256;-83
2023/05/14 10:18:47;;;;;;;9.63;8.73;;;19.30;99.90;;;;;;10391453;28;20748;-82
2023/05/14 10:23:50;;;;;;;10.43;9.50;;;19.10;99.90;;;;;;10402823;28;20206;-81
2023/05/14 10:28:54;;;;;;;8.50;7.83;;;18.90;99.90;;;;;;10419681;28;20293;-83
2023/05/14 10:33:56;;;;;;;8.60;7.90;;;18.90;99.90;;;;;;10402169;28;20262;-81
2023/05/14 10:38:58;;;;;;;8.67;8.03;;;19.00;99.90;;;;;;10416121;28;20226;-82
2023/05/14 10:44:08;;;;;;;8.50;7.80;;;19.00;99.90;;;;;;10422018;28;20652;-80
2023/05/14 10:49:11;;;;;;;8.30;7.70;;;19.10;99.80;;;;;;10421737;28;20697;-81
2023/05/14 10:54:16;;;;;;;7.57;6.97;;;19.10;99.90;;;;;;10423628;28;20229;-82
2023/05/14 10:59:19;;;;;;;9.27;8.57;;;19.20;99.90;;;;;;10407606;28;20226;-83
2023/05/14 11:04:23;;;;;;;7.67;6.90;;;19.40;99.90;;;;;;10405446;28;20230;-81
2023/05/14 11:09:26;;;;;;;7.13;6.53;;;19.60;99.90;;;;;;10420158;28;20284;-83
2023/05/14 11:14:29;;;;;;;9.70;8.03;;;19.60;99.90;;;;;;10420380;28;20693;-81
2023/05/14 11:19:31;;;;;;;9.10;8.40;;;19.50;99.90;;;;;;10420092;28;20230;-83
2023/05/14 11:24:35;;;;;;;9.60;8.90;;;19.30;99.90;;;;;;10399271;28;20257;-83
2023/05/14 11:29:43;;;;;;;10.33;9.53;;;19.10;99.90;;;;;;10419568;28;20730;-81
2023/05/14 11:34:46;;;;;;;8.90;8.10;;;19.00;99.90;;;;;;10399673;28;20198;-81
2023/05/14 11:39:49;;;;;;;9.20;8.27;;;18.90;99.90;;;;;;10397180;28;20249;-80
2023/05/14 11:44:53;;;;;;;10.40;9.60;;;18.80;99.90;;;;;;10384948;28;20202;-82
2023/05/14 11:49:56;;;;;;;7.63;7.03;;;19.00;99.90;;;;;;10422929;28;20229;-81
2023/05/14 11:54:58;;;;;;;7.00;6.40;;;19.10;99.90;;;;;;10418892;28;20198;-84
2023/05/14 12:00:03;;;;;;;9.33;8.57;;;19.10;99.90;;;;;;10422576;28;20785;-84
2023/05/14 12:05:10;;;;;;;8.13;7.53;;;19.10;99.90;;;;;;10410520;28;20655;-83
2023/05/14 12:10:12;;;;;;;8.40;7.70;;;19.00;99.90;;;;;;10410933;28;20218;-83
2023/05/14 12:15:17;;;;;;;8.50;7.80;;;19.00;99.90;;;;;;10406314;28;20198;-83
2023/05/14 12:20:19;;;;;;;9.50;7.63;;;19.00;99.90;;;;;;10423486;28;20298;-83
2023/05/14 12:25:21;;;;;;;8.53;7.83;;;19.10;99.90;;;;;;10402424;28;20713;-82
2023/05/14 12:30:24;;;;;;;6.03;5.53;;;19.20;99.90;;;;;;10403062;28;20232;-82
2023/05/14 12:35:26;;;;;;;7.57;5.60;;;19.30;99.90;;;;;;10403486;28;20257;-80
2023/05/14 12:40:29;;;;;;;6.23;5.73;;;19.20;99.90;;;;;;10415036;28;20237;-79
2023/05/14 12:45:32;;;;;;;6.90;6.30;;;19.00;99.90;;;;;;10400222;28;20203;-80
2023/05/14 12:50:34;;;;;;;6.63;6.23;;;18.90;99.20;;;;;;10417251;28;20256;-79
2023/05/14 12:55:36;;;;;;;6.50;6.10;;;18.80;99.90;;;;;;10416705;28;20198;-80
2023/05/14 13:00:40;;;;;;;7.60;7.00;;;18.70;99.90;;;;;;10416776;28;20226;-79
2023/05/14 13:05:42;;;;;;;6.30;5.90;;;18.70;99.90;;;;;;10412229;28;20234;-79
2023/05/14 13:10:44;;;;;;;6.30;5.73;;;18.80;99.90;;;;;;10410670;28;20645;-79
2023/05/14 13:15:47;;;;;;;6.37;5.90;;;18.90;99.90;;;;;;10414923;28;20567;-80
2023/05/14 13:20:50;;;;;;;5.90;5.50;;;19.20;99.30;;;;;;10416995;28;20303;-79
2023/05/14 13:25:52;;;;;;;6.90;6.40;;;19.20;97.90;;;;;;10396281;28;20204;-77
2023/05/14 13:31:06;;;;;;;6.10;5.70;;;19.20;98.40;;;;;;10417852;28;20215;-78
2023/05/14 13:36:10;;;;;;;5.20;4.80;;;19.00;98.70;;;;;;10415050;28;20217;-80
2023/05/14 13:41:12;;;;;;;5.93;5.50;;;18.90;99.90;;;;;;10422119;28;20226;-78
2023/05/14 13:46:16;;;;;;;7.00;6.10;;;18.90;99.90;;;;;;10414509;28;20689;-79
2023/05/14 13:51:18;;;;;;;6.20;5.80;;;19.00;99.90;;;;;;10415086;28;20305;-79
2023/05/14 13:56:20;;;;;;;8.67;7.97;;;19.00;99.80;;;;;;10419083;28;20653;-77
2023/05/14 14:01:24;;;;;;;5.70;5.30;;;19.10;99.90;;;;;;10420091;28;20210;-79
2023/05/14 14:06:27;;;;;;;6.60;6.17;;;19.20;99.10;;;;;;10419043;28;20198;-77
2023/05/14 14:11:29;;;;;;;5.97;5.47;;;19.20;99.90;;;;;;10423438;28;20225;-81
2023/05/14 14:16:32;;;;;;;6.23;5.83;;;19.10;99.50;;;;;;10415282;28;20202;-81
2023/05/14 14:21:35;;;;;;;6.00;5.57;;;18.90;99.80;;;;;;10405243;28;20211;-79
2023/05/14 14:26:37;;;;;;;5.70;5.40;;;18.80;99.90;;;;;;10422852;28;20198;-82
2023/05/14 14:31:40;;;;;;;5.30;5.00;;;18.60;99.90;;;;;;10427158;28;20222;-79
2023/05/14 14:36:42;;;;;;;5.30;4.90;;;18.40;99.90;;;;;;10403419;28;20240;-82
2023/05/14 14:41:44;;;;;;;5.07;4.77;;;18.20;99.90;;;;;;10423995;28;20594;-79
2023/05/14 14:46:48;;;;;;;5.37;5.07;;;18.10;99.80;;;;;;10423881;28;20198;-79
2023/05/14 14:51:50;;;;;;;5.23;4.93;;;17.90;99.40;;;;;;10424887;28;20253;-80
2023/05/14 14:56:52;;;;;;;5.30;4.90;;;17.90;99.90;;;;;;10407946;28;20245;-80
2023/05/14 15:01:55;;;;;;;7.30;4.63;;;18.10;99.90;;;;;;10408145;28;20246;-79
2023/05/14 15:06:58;;;;;;;4.10;3.90;;;18.30;98.50;;;;;;10423660;28;20203;-80
2023/05/14 15:12:00;;;;;;;4.33;4.03;;;18.70;96.80;;;;;;10427725;28;20229;-81
2023/05/14 15:17:04;;;;;;;4.50;4.10;;;19.00;97.30;;;;;;10412471;28;20737;-79
2023/05/14 15:22:06;;;;;;;4.73;4.43;;;19.20;97.80;;;;;;10427736;28;20198;-79
2023/05/14 15:27:08;;;;;;;4.90;4.60;;;19.20;97.30;;;;;;10423027;28;20544;-80
2023/05/14 15:32:11;;;;;;;6.43;5.13;;;19.10;98.50;;;;;;10404199;28;20214;-79
2023/05/14 15:37:13;;;;;;;5.77;5.27;;;19.00;99.90;;;;;;10421917;28;20563;-79
2023/05/14 15:42:15;;;;;;;6.30;5.03;;;18.70;99.90;;;;;;10431175;23;20771;-84
2023/05/14 15:47:19;;;;;;;6.80;6.30;;;18.40;99.90;;;;;;10426074;28;20262;-83
2023/05/14 15:52:21;;;;;;;11.53;10.13;;;18.10;99.90;;;;;;10405122;28;20709;-83
2023/05/14 15:57:23;;;;;;;10.20;9.40;;;17.80;99.90;;;;;;10400109;28;20506;-83
2023/05/14 16:02:29;;;;;;;10.53;9.83;;;17.20;99.90;;;;;;10420776;28;20581;-83
2023/05/14 16:07:31;;;;;;;12.27;11.37;;;16.60;99.90;;;;;;10400597;28;20218;-83
2023/05/14 16:12:33;;;;;;;12.90;11.90;;;16.20;99.90;;;;;;10413498;28;20247;-83
2023/05/14 16:17:36;;;;;;;13.07;12.07;;;16.10;99.90;;;;;;10404081;28;20199;-84
2023/05/14 16:22:38;;;;;;;13.37;12.37;;;16.00;99.90;;;;;;10403165;28;20214;-83
2023/05/14 16:27:41;;;;;;;12.93;12.03;;;16.00;99.90;;;;;;10423592;28;20210;-82
2023/05/14 16:32:47;;;;;;;12.43;11.53;;;15.90;99.90;;;;;;10400089;28;20218;-82
2023/05/14 16:37:49;;;;;;;14.00;12.90;;;15.70;99.90;;;;;;10404490;28;20718;-82
2023/05/14 16:42:51;;;;;;;15.30;14.00;;;15.60;99.90;;;;;;10405060;28;20712;-82
2023/05/14 16:47:54;;;;;;;16.77;15.47;;;15.70;99.90;;;;;;10379821;28;20208;-83
2023/05/14 16:52:56;;;;;;;14.43;13.43;;;15.70;99.90;;;;;;10379058;28;20318;-81
2023/05/14 16:57:59;;;;;;;13.50;12.50;;;15.90;99.90;;;;;;10411324;28;20715;-84
2023/05/14 17:03:05;;;;;;;15.73;14.23;;;16.00;99.90;;;;;;10388376;28;20593;-83
2023/05/14 17:08:07;;;;;;;14.70;13.40;;;16.30;99.90;;;;;;10397202;28;20218;-83
2023/05/14 17:13:09;;;;;;;12.40;11.53;;;16.50;99.90;;;;;;10418778;28;20206;-83
2023/05/14 17:18:12;;;;;;;12.07;11.17;;;16.60;99.90;;;;;;10402992;28;20256;-84
2023/05/14 17:23:14;;;;;;;11.67;10.87;;;16.60;99.90;;;;;;10372240;28;20206;-84
2023/05/14 17:28:17;;;;;;;10.33;9.63;;;16.50;99.90;;;;;;10370222;28;20268;-83
2023/05/14 17:33:20;;;;;;;11.83;10.80;;;16.40;99.90;;;;;;10388575;28;20678;-83
2023/05/14 17:38:22;;;;;;;11.77;10.97;;;16.30;99.90;;;;;;10393318;28;20218;-83
2023/05/14 17:43:24;;;;;;;11.47;10.57;;;16.20;99.90;;;;;;10389799;28;20281;-85
2023/05/14 17:48:28;;;;;;;11.33;10.43;;;16.20;99.90;;;;;;10398373;28;20495;-84
2023/05/14 17:53:30;;;;;;;10.10;9.40;;;16.00;99.90;;;;;;10400077;28;20199;-84
2023/05/14 17:58:32;;;;;;;9.20;8.50;;;15.80;99.90;;;;;;10397897;28;20222;-82
2023/05/14 18:03:35;;;;;;;9.27;8.57;;;15.60;99.90;;;;;;10398661;28;20257;-85
2023/05/14 18:08:37;;;;;;;9.00;8.20;;;15.40;99.90;;;;;;10397032;28;20314;-82
2023/05/14 18:13:39;;;;;;;9.30;8.57;;;15.30;99.90;;;;;;10418578;28;20360;-83
2023/05/14 18:18:43;;;;;;;9.30;8.60;;;15.10;99.90;;;;;;10386490;28;20223;-83
2023/05/14 18:23:45;;;;;;;10.33;9.53;;;15.00;99.90;;;;;;10421996;28;20229;-83
2023/05/14 18:28:47;;;;;;;10.30;9.50;;;14.90;99.90;;;;;;10414777;28;20293;-82
2023/05/14 18:33:52;;;;;;;10.17;9.27;;;14.80;99.90;;;;;;10390104;28;20205;-82
2023/05/14 18:38:56;;;;;;;11.47;9.13;;;14.70;99.90;;;;;;10392585;28;20721;-82
2023/05/14 18:43:58;;;;;;;9.57;8.77;;;14.70;99.90;;;;;;10391073;28;20194;-82
2023/05/14 18:49:02;;;;;;;8.40;7.67;;;14.60;99.90;;;;;;10406032;28;20238;-82
2023/05/14 18:54:04;;;;;;;9.00;8.27;;;14.40;99.90;;;;;;10403525;28;20681;-83
2023/05/14 18:59:06;;;;;;;9.57;8.47;;;14.40;99.90;;;;;;10385319;28;20292;-82
2023/05/14 19:04:10;;;;;;;8.90;8.20;;;14.30;99.90;;;;;;10426784;28;20255;-83
2023/05/14 19:09:19;;;;;;;9.80;8.93;;;14.30;99.90;;;;;;10391675;28;20222;-83
2023/05/14 19:14:21;;;;;;;9.37;8.47;;;14.20;99.90;;;;;;10411730;28;20207;-82
2023/05/14 19:19:25;;;;;;;8.93;8.13;;;14.10;99.90;;;;;;10413209;28;20242;-83
2023/05/14 19:24:27;;;;;;;8.93;8.03;;;14.00;99.90;;;;;;10412951;28;20337;-84
2023/05/14 19:29:31;;;;;;;8.70;8.00;;;14.00;99.90;;;;;;10425006;28;20225;-84
2023/05/14 19:34:34;;;;;;;8.57;7.80;;;14.00;99.90;;;;;;10418289;28;20286;-84
2023/05/14 19:39:37;;;;;;;7.97;7.17;;;14.00;99.90;;;;;;10418794;28;20210;-85
2023/05/14 19:44:39;;;;;;;8.83;8.13;;;13.90;99.90;;;;;;10434813;28;20671;-83
2023/05/14 19:49:42;;;;;;;8.93;8.23;;;13.90;99.90;;;;;;10408067;28;20254;-83
2023/05/14 19:54:44;;;;;;;8.40;7.80;;;14.00;99.90;;;;;;10392704;28;20229;-84
2023/05/14 19:59:46;;;;;;;8.70;8.00;;;14.00;99.90;;;;;;10393581;28;20211;-84
2023/05/14 20:04:50;;;;;;;9.07;8.30;;;14.00;99.90;;;;;;10405984;28;20183;-83
2023/05/14 20:09:54;;;;;;;9.00;8.30;;;14.10;99.90;;;;;;10404785;28;20706;-83
2023/05/14 20:14:56;;;;;;;8.90;8.20;;;14.10;99.90;;;;;;10424280;28;20194;-84
2023/05/14 20:20:00;;;;;;;8.87;8.20;;;14.10;99.90;;;;;;10406993;28;20238;-85
2023/05/14 20:25:02;;;;;;;9.60;8.70;;;14.00;99.90;;;;;;10421429;28;20206;-83
2023/05/14 20:30:06;;;;;;;9.00;8.30;;;14.00;99.90;;;;;;10373010;28;20222;-84
2023/05/14 20:35:09;;;;;;;8.33;7.63;;;14.00;99.90;;;;;;10427397;28;20597;-83
2023/05/14 20:40:12;;;;;;;8.70;8.10;;;14.00;99.90;;;;;;10409460;28;20284;-83
2023/05/14 20:45:14;;;;;;;8.93;7.60;;;13.90;99.90;;;;;;10428869;28;20214;-82
2023/05/14 20:50:18;;;;;;;7.73;7.13;;;13.80;99.90;;;;;;10429507;28;20245;-82
2023/05/14 20:55:20;;;;;;;8.27;7.37;;;13.80;99.90;;;;;;10409933;28;20666;-83
2023/05/14 21:00:22;;;;;;;7.90;7.20;;;13.70;99.90;;;;;;10403190;28;20217;-83
2023/05/14 21:05:26;;;;;;;7.93;7.27;;;13.70;99.90;;;;;;10400510;28;20245;-83
2023/05/14 21:10:28;;;;;;;8.00;7.40;;;13.60;99.90;;;;;;10383987;28;20226;-83
2023/05/14 21:15:31;;;;;;;6.93;6.43;;;13.60;99.90;;;;;;10402067;28;20187;-83
2023/05/14 21:20:35;;;;;;;9.00;8.10;;;13.50;99.90;;;;;;10402002;28;20214;-83
2023/05/14 21:25:38;;;;;;;8.27;7.67;;;13.40;99.90;;;;;;10385925;28;20655;-83
2023/05/14 21:30:43;;;;;;;8.50;7.90;;;13.40;99.90;;;;;;10386100;28;20238;-83
2023/05/14 21:35:47;;;;;;;9.07;8.27;;;13.30;99.90;;;;;;10393305;28;20277;-83
2023/05/14 21:40:49;;;;;;;10.50;8.83;;;13.30;99.90;;;;;;10416132;28;20234;-83
2023/05/14 21:45:51;;;;;;;8.70;8.00;;;13.30;99.90;;;;;;10425171;28;20523;-83
2023/05/14 21:50:55;;;;;;;9.07;8.37;;;13.20;99.90;;;;;;10427785;28;20210;-82
2023/05/14 21:55:57;;;;;;;8.47;7.87;;;13.20;99.90;;;;;;10410235;28;20206;-83
2023/05/14 22:00:59;;;;;;;8.60;7.90;;;13.20;99.90;;;;;;10391037;28;20219;-83
2023/05/14 22:06:03;;;;;;;8.43;7.73;;;13.20;99.90;;;;;;10420313;28;20254;-83
2023/05/14 22:11:07;;;;;;;8.50;7.70;;;13.20;99.90;;;;;;10411601;28;20210;-83
2023/05/14 22:16:11;;;;;;;9.60;8.80;;;13.20;99.90;;;;;;10406387;28;20282;-82
2023/05/14 22:21:15;;;;;;;8.80;7.33;;;13.20;99.90;;;;;;10418500;28;20265;-83
2023/05/14 22:26:17;;;;;;;8.23;7.63;;;13.20;99.90;;;;;;10403017;28;20265;-83
2023/05/14 22:31:19;;;;;;;8.80;8.03;;;13.20;99.90;;;;;;10419865;28;20219;-82
2023/05/14 22:36:23;;;;;;;7.93;7.33;;;13.20;99.90;;;;;;10403441;28;20202;-83
2023/05/14 22:41:25;;;;;;;8.90;8.00;;;13.10;99.90;;;;;;10401651;28;20228;-83
2023/05/14 22:46:27;;;;;;;9.00;8.30;;;13.10;99.90;;;;;;10402531;28;20637;-86
2023/05/14 22:51:31;;;;;;;9.37;8.57;;;13.10;99.90;;;;;;10399940;28;20222;-83
2023/05/14 22:56:33;;;;;;;7.30;6.80;;;13.10;99.90;;;;;;10399835;28;20202;-85
2023/05/14 23:01:35;;;;;;;7.80;7.30;;;13.10;99.90;;;;;;10409669;28;20253;-83
2023/05/14 23:06:38;;;;;;;7.47;6.73;;;13.00;99.90;;;;;;10399187;28;20199;-86
2023/05/14 23:11:41;;;;;;;6.83;6.33;;;13.00;99.90;;;;;;10396861;28;20214;-83
2023/05/14 23:16:43;;;;;;;6.47;6.00;;;13.00;99.90;;;;;;10389236;28;20213;-84
2023/05/14 23:21:47;;;;;;;6.73;6.23;;;13.00;99.90;;;;;;10381246;28;20214;-83
2023/05/14 23:26:49;;;;;;;10.27;6.70;;;12.90;99.90;;;;;;10383674;28;20198;-83
2023/05/14 23:31:51;;;;;;;6.70;6.20;;;12.90;99.90;;;;;;10385666;28;20257;-84
2023/05/14 23:36:55;;;;;;;7.20;6.70;;;12.80;99.90;;;;;;10383148;28;20281;-84
2023/05/14 23:41:57;;;;;;;8.23;7.40;;;12.80;99.90;;;;;;10407321;28;20242;-83
2023/05/14 23:46:59;;;;;;;6.50;6.00;;;12.80;99.90;;;;;;10403176;28;20245;-84
2023/05/14 23:52:03;;;;;;;7.57;6.97;;;12.70;99.90;;;;;;10421899;28;20760;-84
2023/05/14 23:57:05;;;;;;;8.00;7.40;;;12.70;99.90;;;;;;10379107;28;20213;-84
